Time;durP1;ratioP1;P1;durP2;ratioP2;P2;SDS_P1;SDS_P2;PMS_P1;PMS_P2;Temp;Humidity;BMP_temperature;BMP_pressure;BME280_temperature;BME280_humidity;BME280_pressure;Samples;Min_cycle;Max_cycle;Signal;HPM_P1;HPM_P2
2024/02/27 00:01:42;;;;;;;9.55;4.38;;;-3.30;91.40;;;;;;5091983;28;20024;-84
2024/02/27 00:04:09;;;;;;;6.75;4.13;;;-3.30;91.40;;;;;;5093517;28;20401;-84
2024/02/27 00:06:36;;;;;;;8.38;5.63;;;-3.30;91.50;;;;;;5092803;28;20045;-83
2024/02/27 00:09:02;;;;;;;9.35;4.45;;;-3.30;91.50;;;;;;5092438;28;20036;-80
2024/02/27 00:11:29;;;;;;;5.20;4.10;;;-3.30;91.60;;;;;;5092004;28;20115;-80
2024/02/27 00:13:55;;;;;;;9.52;5.82;;;-3.30;91.60;;;;;;5091333;28;20032;-82
2024/02/27 00:16:21;;;;;;;8.02;4.38;;;-3.30;91.60;;;;;;5076421;28;20048;-82
2024/02/27 00:18:48;;;;;;;10.93;6.07;;;-3.30;91.60;;;;;;5080087;28;20539;-79
2024/02/27 00:21:14;;;;;;;9.87;5.53;;;-3.30;91.70;;;;;;5092274;28;20035;-80
2024/02/27 00:23:40;;;;;;;10.00;5.37;;;-3.30;91.70;;;;;;5091197;28;20311;-80
2024/02/27 00:26:06;;;;;;;11.35;4.95;;;-3.30;91.70;;;;;;5084794;28;20048;-80
2024/02/27 00:28:32;;;;;;;8.70;5.15;;;-3.30;91.80;;;;;;5089996;28;20024;-81
2024/02/27 00:30:58;;;;;;;11.02;5.93;;;-3.30;91.80;;;;;;5092031;28;20040;-80
2024/02/27 00:33:24;;;;;;;12.70;6.15;;;-3.30;91.80;;;;;;5092263;28;20020;-80
2024/02/27 00:35:50;;;;;;;11.48;4.57;;;-3.30;91.90;;;;;;5092655;28;20502;-82
2024/02/27 00:38:15;;;;;;;8.95;6.20;;;-3.30;91.90;;;;;;5091688;28;20496;-79
2024/02/27 00:40:42;;;;;;;5.72;3.67;;;-3.30;91.80;;;;;;5093863;28;20024;-80
2024/02/27 00:43:07;;;;;;;13.05;6.75;;;-3.20;91.80;;;;;;5094234;28;20029;-80
2024/02/27 00:45:33;;;;;;;14.50;6.82;;;-3.30;91.80;;;;;;5105184;28;20031;-80
2024/02/27 00:47:59;;;;;;;14.68;6.45;;;-3.30;91.90;;;;;;5100444;28;20043;-80
2024/02/27 00:50:28;;;;;;;11.80;5.32;;;-3.20;92.00;;;;;;5092338;28;20028;-80
2024/02/27 00:52:54;;;;;;;15.25;7.55;;;-3.10;92.10;;;;;;5084715;28;20028;-80
2024/02/27 00:55:20;;;;;;;7.50;4.70;;;-3.00;91.90;;;;;;5091679;28;20028;-80
2024/02/27 00:57:46;;;;;;;13.07;5.18;;;-3.00;91.80;;;;;;5091663;28;20500;-79
2024/02/27 01:00:13;;;;;;;10.60;5.32;;;-3.00;91.40;;;;;;5091630;28;20035;-81
2024/02/27 01:02:40;;;;;;;7.95;5.25;;;-2.90;91.60;;;;;;5092128;28;20028;-80
2024/02/27 01:05:08;;;;;;;9.98;5.45;;;-2.90;91.70;;;;;;5092282;28;20489;-81
2024/02/27 01:07:33;;;;;;;;;;;-2.80;91.70;;;;;;5094346;28;20048;-78
2024/02/27 01:10:00;;;;;;;9.25;6.13;;;-2.80;91.60;;;;;;5100784;28;19975;-81
2024/02/27 01:12:26;;;;;;;11.38;6.55;;;-2.80;91.50;;;;;;5087588;28;20028;-79
2024/02/27 01:14:52;;;;;;;12.25;5.72;;;-2.80;91.50;;;;;;5084642;28;20045;-78
2024/02/27 01:17:17;;;;;;;10.93;5.80;;;-2.80;91.50;;;;;;5091531;28;20116;-81
2024/02/27 01:19:43;;;;;;;10.07;6.32;;;-2.90;91.50;;;;;;5090493;28;20107;-79
2024/02/27 01:22:10;;;;;;;12.30;5.70;;;-2.90;91.60;;;;;;5086533;28;20036;-79
2024/02/27 01:24:38;;;;;;;12.80;6.07;;;-2.80;91.70;;;;;;5085167;28;20020;-80
2024/02/27 01:27:04;;;;;;;8.25;4.63;;;-2.80;91.60;;;;;;5069417;28;20032;-80
2024/02/27 01:29:30;;;;;;;7.15;4.88;;;-2.80;91.50;;;;;;5076673;28;20039;-79
2024/02/27 01:31:57;;;;;;;12.68;5.65;;;-2.90;91.60;;;;;;5090185;28;20032;-81
2024/02/27 01:34:24;;;;;;;13.10;6.25;;;-2.90;91.60;;;;;;5091720;28;20036;-79
2024/02/27 01:36:50;;;;;;;11.45;6.93;;;-2.90;91.70;;;;;;5091600;28;20020;-80
2024/02/27 01:39:16;;;;;;;12.65;6.53;;;-2.90;91.90;;;;;;5091488;28;20027;-80
2024/02/27 01:41:48;;;;;;;11.73;6.07;;;-2.90;92.10;;;;;;5094177;28;20058;-80
2024/02/27 01:44:14;;;;;;;11.48;5.10;;;-3.00;92.60;;;;;;5089334;28;20024;-80
2024/02/27 01:46:41;;;;;;;11.90;5.10;;;-2.90;92.50;;;;;;5083380;28;20438;-78
2024/02/27 01:49:09;;;;;;;7.93;5.43;;;-3.00;92.90;;;;;;5082854;28;20056;-80
2024/02/27 01:51:36;;;;;;;14.85;7.95;;;-3.00;93.40;;;;;;5087172;28;20114;-81
2024/02/27 01:54:04;;;;;;;14.23;6.47;;;-3.00;93.60;;;;;;5087137;28;20484;-80
2024/02/27 01:56:30;;;;;;;;;;;-3.00;94.00;;;;;;5095093;28;20016;-79
2024/02/27 01:58:57;;;;;;;9.07;5.57;;;-3.00;93.90;;;;;;5087225;28;19911;-79
2024/02/27 02:01:24;;;;;;;13.70;6.82;;;-3.10;94.20;;;;;;5094491;28;20587;-79
2024/02/27 02:03:51;;;;;;;15.82;7.82;;;-3.20;94.50;;;;;;5090781;28;20054;-79
2024/02/27 02:06:17;;;;;;;;;;;-3.20;94.70;;;;;;5101422;28;20062;-78
2024/02/27 02:08:43;;;;;;;8.27;5.38;;;-3.20;95.00;;;;;;5095015;28;20369;-80
2024/02/27 02:11:11;;;;;;;14.70;7.78;;;-3.20;95.10;;;;;;5094491;28;20057;-80
2024/02/27 02:13:37;;;;;;;14.27;7.63;;;-3.20;95.30;;;;;;5094715;28;20389;-80
2024/02/27 02:16:04;;;;;;;12.32;8.50;;;-3.10;95.60;;;;;;5094485;28;20484;-81
2024/02/27 02:18:30;;;;;;;11.65;7.10;;;-3.00;95.60;;;;;;5094480;28;20017;-79
2024/02/27 02:20:56;;;;;;;14.27;8.00;;;-2.90;95.50;;;;;;5092382;28;20034;-80
2024/02/27 02:23:22;;;;;;;15.13;7.38;;;-2.90;95.30;;;;;;5093243;28;20028;-80
2024/02/27 02:25:48;;;;;;;15.10;5.68;;;-2.80;95.60;;;;;;5081074;28;20055;-80
2024/02/27 02:28:15;;;;;;;16.20;7.35;;;-2.80;95.20;;;;;;5092117;28;20081;-81
2024/02/27 02:30:42;;;;;;;9.10;5.43;;;-2.80;94.90;;;;;;5094365;28;20027;-79
2024/02/27 02:33:10;;;;;;;13.03;6.93;;;-2.80;94.90;;;;;;5094197;28;20299;-80
2024/02/27 02:35:36;;;;;;;12.25;6.82;;;-2.80;94.80;;;;;;5095544;28;20473;-79
2024/02/27 02:38:01;;;;;;;16.83;7.65;;;-2.80;94.70;;;;;;5092943;28;20066;-79
2024/02/27 02:40:27;;;;;;;20.88;7.80;;;-2.80;94.70;;;;;;5093925;28;20749;-80
2024/02/27 02:42:53;;;;;;;15.27;6.78;;;-2.80;94.60;;;;;;5092548;28;20028;-81
2024/02/27 02:45:19;;;;;;;13.32;6.07;;;-2.70;94.50;;;;;;5093467;28;20035;-81
2024/02/27 02:47:45;;;;;;;14.02;7.75;;;-2.70;94.40;;;;;;5092413;28;20024;-80
2024/02/27 02:50:12;;;;;;;14.02;7.68;;;-2.70;94.30;;;;;;5092202;28;20110;-82
2024/02/27 02:52:39;;;;;;;13.93;7.00;;;-2.60;94.20;;;;;;5091916;28;20485;-80
2024/02/27 02:55:08;;;;;;;14.40;7.60;;;-2.50;94.30;;;;;;5092039;28;20028;-80
2024/02/27 02:57:34;;;;;;;14.10;5.30;;;-2.50;94.10;;;;;;5093806;28;20089;-80
2024/02/27 03:00:00;;;;;;;18.08;7.80;;;-2.40;93.90;;;;;;5093483;28;20012;-81
2024/02/27 03:02:26;;;;;;;8.97;6.07;;;-2.40;93.80;;;;;;5079929;28;20050;-82
2024/02/27 03:04:52;;;;;;;13.15;7.05;;;-2.40;93.80;;;;;;5079710;28;20016;-80
2024/02/27 03:07:18;;;;;;;18.15;7.43;;;-2.40;93.80;;;;;;5091834;28;20056;-78
2024/02/27 03:09:44;;;;;;;13.90;8.55;;;-2.30;93.90;;;;;;5093004;28;20097;-81
2024/02/27 03:12:10;;;;;;;11.88;5.97;;;-2.30;93.70;;;;;;5093079;28;20043;-81
2024/02/27 03:14:41;;;;;;;10.85;5.80;;;-2.30;93.70;;;;;;5093040;28;20016;-82
2024/02/27 03:17:07;;;;;;;9.88;6.10;;;-2.20;93.70;;;;;;5092090;28;20124;-79
2024/02/27 03:19:33;;;;;;;13.52;5.22;;;-2.30;93.50;;;;;;5093993;28;20437;-81
2024/02/27 03:21:59;;;;;;;11.05;6.70;;;-2.30;93.50;;;;;;5093821;28;20465;-78
2024/02/27 03:24:25;;;;;;;7.85;4.57;;;-2.30;93.60;;;;;;5085663;28;20504;-80
2024/02/27 03:26:51;;;;;;;16.20;6.20;;;-2.20;93.60;;;;;;5093529;28;20441;-80
2024/02/27 03:29:16;;;;;;;14.25;7.80;;;-2.20;93.60;;;;;;5094711;28;20038;-79
2024/02/27 03:31:42;;;;;;;12.70;6.32;;;-2.20;93.60;;;;;;5094185;28;20055;-79
2024/02/27 03:34:08;;;;;;;14.95;6.30;;;-2.20;93.40;;;;;;5094692;28;20031;-80
2024/02/27 03:36:39;;;;;;;7.97;5.35;;;-2.20;93.40;;;;;;5095877;28;20020;-81
2024/02/27 03:39:05;;;;;;;11.73;5.95;;;-2.20;93.50;;;;;;5104081;28;20012;-81
2024/02/27 03:41:31;;;;;;;12.38;7.28;;;-2.20;93.50;;;;;;5104916;28;20020;-80
2024/02/27 03:43:56;;;;;;;16.92;7.22;;;-2.10;93.40;;;;;;5091867;28;20070;-81
2024/02/27 03:46:22;;;;;;;12.27;7.03;;;-2.10;93.50;;;;;;5093893;28;20020;-80
2024/02/27 03:48:48;;;;;;;7.30;4.22;;;-2.00;93.40;;;;;;5096206;28;20431;-80
2024/02/27 03:51:14;;;;;;;14.98;6.15;;;-2.10;93.30;;;;;;5096742;28;20381;-82
2024/02/27 03:53:40;;;;;;;15.13;5.88;;;-2.10;93.50;;;;;;5092883;28;20422;-82
2024/02/27 03:56:06;;;;;;;6.28;4.97;;;-2.10;93.30;;;;;;5096523;28;20042;-80
2024/02/27 03:58:36;;;;;;;12.53;6.40;;;-2.10;93.40;;;;;;5096947;28;20108;-82
2024/02/27 04:01:02;;;;;;;13.20;5.82;;;-2.00;93.40;;;;;;5095886;28;20261;-81
2024/02/27 04:03:27;;;;;;;12.20;5.05;;;-2.00;93.50;;;;;;5092000;28;20024;-79
2024/02/27 04:05:53;;;;;;;9.25;6.78;;;-2.00;93.30;;;;;;5098158;28;20483;-81
2024/02/27 04:08:19;;;;;;;11.27;6.45;;;-2.00;93.40;;;;;;5094076;28;20555;-81
2024/02/27 04:10:45;;;;;;;10.50;4.45;;;-1.90;93.40;;;;;;5097575;28;20036;-92
2024/02/27 04:13:11;;;;;;;7.47;4.60;;;-1.90;93.40;;;;;;5096806;28;20462;-90
2024/02/27 04:15:37;;;;;;;13.63;8.30;;;-1.90;93.20;;;;;;5089022;28;20568;-91
2024/02/27 04:18:04;;;;;;;9.00;5.97;;;-1.90;93.30;;;;;;5086349;28;20024;-89
2024/02/27 04:20:30;;;;;;;15.38;5.50;;;-1.90;93.30;;;;;;5102925;28;20105;-88
2024/02/27 04:22:56;;;;;;;9.85;4.97;;;-1.90;93.30;;;;;;5091715;28;20543;-82
2024/02/27 04:25:22;;;;;;;14.52;6.85;;;-1.80;93.30;;;;;;5092355;28;20058;-81
2024/02/27 04:27:48;;;;;;;4.43;3.42;;;-1.80;93.40;;;;;;5073424;28;20035;-81
2024/02/27 04:30:15;;;;;;;12.88;5.95;;;-1.80;93.40;;;;;;5091739;28;20036;-81
2024/02/27 04:32:41;;;;;;;11.82;5.55;;;-1.90;93.20;;;;;;5090311;28;20035;-80
2024/02/27 04:35:07;;;;;;;9.73;5.63;;;-1.80;93.40;;;;;;5091636;28;20028;-81
2024/02/27 04:37:33;;;;;;;11.57;6.22;;;-1.80;93.30;;;;;;5091546;28;20031;-81
2024/02/27 04:39:59;;;;;;;9.43;5.40;;;-1.80;93.30;;;;;;5092158;28;20020;-81
2024/02/27 04:42:24;;;;;;;9.82;4.55;;;-1.80;93.30;;;;;;5093865;28;20016;-83
2024/02/27 04:44:50;;;;;;;11.82;4.63;;;-1.70;93.50;;;;;;5092102;28;20047;-82
2024/02/27 04:47:16;;;;;;;9.63;6.25;;;-1.70;93.30;;;;;;5073330;28;20044;-83
2024/02/27 04:49:42;;;;;;;12.13;6.15;;;-1.80;93.20;;;;;;5083496;28;20016;-82
2024/02/27 04:52:08;;;;;;;15.48;7.03;;;-1.80;93.30;;;;;;5093679;28;20044;-81
2024/02/27 04:54:37;;;;;;;13.85;6.38;;;-1.70;93.40;;;;;;5091524;28;20031;-83
2024/02/27 04:57:03;;;;;;;14.70;7.05;;;-1.70;93.40;;;;;;5091251;28;20031;-82
2024/02/27 04:59:29;;;;;;;15.90;6.68;;;-1.60;93.60;;;;;;5091552;28;20030;-82
2024/02/27 05:01:55;;;;;;;9.25;5.28;;;-1.60;93.60;;;;;;5093231;28;20392;-81
2024/02/27 05:04:21;;;;;;;12.80;7.00;;;-1.50;93.40;;;;;;5090474;28;20032;-80
2024/02/27 05:06:47;;;;;;;7.60;4.88;;;-1.60;93.60;;;;;;5092003;28;20031;-81
2024/02/27 05:09:13;;;;;;;8.52;6.43;;;-1.50;93.60;;;;;;5091143;28;20048;-81
2024/02/27 05:11:39;;;;;;;12.07;8.85;;;-1.50;93.30;;;;;;5088939;28;20362;-81
2024/02/27 05:14:04;;;;;;;14.70;8.48;;;-1.50;93.50;;;;;;5084664;28;20389;-81
2024/02/27 05:16:30;;;;;;;19.60;7.70;;;-1.40;93.60;;;;;;5094467;28;20048;-83
2024/02/27 05:18:56;;;;;;;12.57;7.22;;;-1.30;93.50;;;;;;5094382;28;20235;-81
2024/02/27 05:21:22;;;;;;;11.35;7.18;;;-1.30;93.20;;;;;;5095526;28;20020;-81
2024/02/27 05:23:48;;;;;;;17.25;8.52;;;-1.30;93.10;;;;;;5095734;28;20035;-86
2024/02/27 05:26:15;;;;;;;10.30;6.13;;;-1.20;93.30;;;;;;5095299;28;20077;-80
2024/02/27 05:28:41;;;;;;;12.15;6.10;;;-1.20;93.00;;;;;;5095466;28;20077;-82
2024/02/27 05:31:26;;;;;;;12.57;4.95;;;-1.20;92.90;;;;;;5091877;28;20399;-81
2024/02/27 05:33:57;;;;;;;13.40;6.03;;;-1.10;93.00;;;;;;5090503;28;20019;-80
2024/02/27 05:36:24;;;;;;;12.35;6.30;;;-1.20;93.00;;;;;;5092713;28;20556;-80
2024/02/27 05:38:50;;;;;;;14.18;7.07;;;-1.10;93.00;;;;;;5104655;28;20081;-81
2024/02/27 05:41:20;;;;;;;9.77;3.95;;;-1.10;93.00;;;;;;5083701;28;20032;-81
2024/02/27 05:43:45;;;;;;;8.00;5.38;;;-1.00;93.00;;;;;;5093860;28;20024;-81
2024/02/27 05:46:11;;;;;;;12.68;6.43;;;-1.10;93.00;;;;;;5094050;28;20376;-83
2024/02/27 05:48:38;;;;;;;7.88;6.35;;;-1.00;92.80;;;;;;5093452;28;20020;-80
2024/02/27 05:51:05;;;;;;;11.63;7.03;;;-1.00;92.90;;;;;;5095784;28;20119;-81
2024/02/27 05:53:32;;;;;;;19.08;6.47;;;-0.90;92.90;;;;;;5086453;28;20394;-82
2024/02/27 05:55:58;;;;;;;10.13;6.35;;;-0.90;92.80;;;;;;5085081;28;20520;-83
2024/02/27 05:58:24;;;;;;;9.38;5.90;;;-0.90;92.60;;;;;;5082213;28;20063;-82
2024/02/27 06:00:51;;;;;;;10.25;5.20;;;-0.80;92.80;;;;;;5096947;28;20052;-85
2024/02/27 06:03:20;;;;;;;12.97;6.57;;;-0.80;92.50;;;;;;5095735;28;20024;-83
2024/02/27 06:05:47;;;;;;;7.53;4.50;;;-0.70;92.60;;;;;;5095122;28;20428;-81
2024/02/27 06:08:13;;;;;;;11.98;6.43;;;-0.70;92.30;;;;;;5087687;28;20530;-82
2024/02/27 06:10:40;;;;;;;7.70;4.82;;;-0.70;92.50;;;;;;5088207;28;20093;-83
2024/02/27 06:13:45;;;;;;;7.28;5.00;;;-0.70;92.40;;;;;;5088494;28;20023;-82
2024/02/27 06:16:11;;;;;;;9.57;5.97;;;-0.70;92.10;;;;;;5058893;28;20032;-82
2024/02/27 06:18:38;;;;;;;13.07;4.55;;;-0.70;92.40;;;;;;5094610;28;20032;-81
2024/02/27 06:23:51;;;;;;;5.72;4.55;;;-0.50;92.30;;;;;;5095218;28;20035;-81
2024/02/27 06:26:17;;;;;;;8.35;4.60;;;-0.60;92.20;;;;;;5095082;28;20051;-81
2024/02/27 06:28:43;;;;;;;11.68;5.68;;;-0.70;92.00;;;;;;5091872;28;20489;-80
2024/02/27 06:31:10;;;;;;;11.88;5.75;;;-0.70;92.20;;;;;;5088128;28;20039;-82
2024/02/27 06:33:37;;;;;;;18.92;7.68;;;-0.70;92.30;;;;;;5101770;28;20016;-81
2024/02/27 06:36:03;;;;;;;13.05;6.57;;;-0.70;92.40;;;;;;5105106;28;20450;-81
2024/02/27 06:38:28;;;;;;;14.60;8.15;;;-0.50;92.50;;;;;;5092473;28;20119;-81
2024/02/27 06:40:54;;;;;;;12.98;5.70;;;-0.30;92.50;;;;;;5092699;28;20517;-81
2024/02/27 06:43:20;;;;;;;13.35;6.80;;;-0.40;91.80;;;;;;5093815;28;20362;-83
2024/02/27 06:45:46;;;;;;;9.57;5.35;;;-0.40;91.80;;;;;;5094292;28;20095;-82
2024/02/27 06:48:13;;;;;;;11.90;6.97;;;-0.50;92.00;;;;;;5092258;28;20488;-82
2024/02/27 06:50:39;;;;;;;11.82;7.85;;;-0.50;92.00;;;;;;5092697;28;20123;-80
2024/02/27 06:53:05;;;;;;;16.27;7.88;;;-0.40;92.10;;;;;;5096666;28;20051;-82
2024/02/27 06:55:31;;;;;;;10.95;6.40;;;-0.30;92.30;;;;;;5094626;28;20028;-85
2024/02/27 06:57:57;;;;;;;19.48;6.90;;;0.00;92.20;;;;;;5093811;28;20455;-82
2024/02/27 07:00:23;;;;;;;15.40;7.40;;;0.00;91.60;;;;;;5094737;28;20028;-83
2024/02/27 07:02:49;;;;;;;13.15;5.70;;;0.00;91.70;;;;;;5095795;28;20417;-81
2024/02/27 07:05:15;;;;;;;18.50;7.80;;;0.10;91.80;;;;;;5092830;28;20024;-81
2024/02/27 07:07:41;;;;;;;13.85;6.82;;;0.10;91.70;;;;;;5092637;28;20173;-82
2024/02/27 07:10:07;;;;;;;12.60;6.95;;;0.30;91.60;;;;;;5074364;28;20119;-82
2024/02/27 07:12:34;;;;;;;13.60;6.65;;;0.50;91.50;;;;;;5090722;28;20035;-81
2024/02/27 07:15:00;;;;;;;13.40;6.30;;;0.60;91.20;;;;;;5095183;28;20096;-83
2024/02/27 07:17:26;;;;;;;14.65;7.68;;;0.40;90.70;;;;;;5095347;28;20073;-82
2024/02/27 07:19:57;;;;;;;11.35;5.82;;;0.30;91.20;;;;;;5097200;28;20019;-83
2024/02/27 07:22:23;;;;;;;17.52;7.53;;;0.40;91.30;;;;;;5095466;28;20024;-82
2024/02/27 07:24:49;;;;;;;17.58;7.90;;;0.30;91.20;;;;;;5092182;28;20020;-83
2024/02/27 07:27:15;;;;;;;13.55;7.57;;;0.30;91.10;;;;;;5092213;28;20027;-85
2024/02/27 07:29:41;;;;;;;13.02;7.07;;;0.40;91.00;;;;;;5092159;28;20131;-82
2024/02/27 07:32:06;;;;;;;15.63;7.20;;;0.30;91.00;;;;;;5092109;28;20047;-82
2024/02/27 07:34:32;;;;;;;9.82;5.53;;;0.40;91.20;;;;;;5091850;28;20027;-84
2024/02/27 07:37:00;;;;;;;13.38;6.90;;;0.50;91.20;;;;;;5093364;28;20102;-83
2024/02/27 07:39:25;;;;;;;16.23;8.38;;;0.60;91.00;;;;;;5092696;28;20024;-81
2024/02/27 07:41:51;;;;;;;13.18;6.90;;;0.70;90.90;;;;;;5091574;28;20162;-84
2024/02/27 07:44:17;;;;;;;11.68;7.28;;;0.60;90.60;;;;;;5088501;28;20039;-83
2024/02/27 07:46:43;;;;;;;18.83;8.75;;;0.50;90.60;;;;;;5092761;28;20394;-82
2024/02/27 07:49:10;;;;;;;9.82;6.38;;;0.60;91.10;;;;;;5080649;28;20097;-84
2024/02/27 07:51:37;;;;;;;;;;;0.80;90.70;;;;;;5073976;28;20044;-82
2024/02/27 07:54:03;;;;;;;14.70;9.10;;;0.80;90.80;;;;;;5087875;28;19912;-83
2024/02/27 07:56:31;;;;;;;9.50;5.75;;;1.10;90.90;;;;;;5093154;28;20024;-83
2024/02/27 07:58:58;;;;;;;10.00;5.95;;;1.10;90.50;;;;;;5090324;28;20395;-83
2024/02/27 08:01:25;;;;;;;16.27;7.10;;;1.00;90.40;;;;;;5092549;28;20439;-83
2024/02/27 08:03:54;;;;;;;14.82;7.50;;;1.00;90.50;;;;;;5092663;28;20249;-84
2024/02/27 08:06:20;;;;;;;9.48;6.00;;;1.00;90.40;;;;;;5083688;28;20465;-83
2024/02/27 08:08:46;;;;;;;18.20;8.45;;;1.10;90.60;;;;;;5078836;28;20072;-81
2024/02/27 08:11:12;;;;;;;10.43;7.75;;;1.10;90.20;;;;;;5079629;28;20405;-82
2024/02/27 08:13:38;;;;;;;11.98;7.63;;;1.10;90.50;;;;;;5081443;28;20039;-82
2024/02/27 08:16:04;;;;;;;21.08;8.20;;;1.40;90.60;;;;;;5083396;28;20059;-81
2024/02/27 08:18:30;;;;;;;20.20;8.52;;;1.50;90.20;;;;;;5089623;28;20382;-84
2024/02/27 08:20:56;;;;;;;16.30;5.63;;;1.50;89.70;;;;;;5093667;28;20020;-85
2024/02/27 08:23:21;;;;;;;13.93;8.57;;;1.50;89.40;;;;;;5093825;28;20399;-86
2024/02/27 08:25:47;;;;;;;17.67;8.82;;;1.40;90.00;;;;;;5093874;28;20060;-85
2024/02/27 08:28:13;;;;;;;17.25;8.45;;;1.50;89.80;;;;;;5090744;28;20035;-82
2024/02/27 08:30:44;;;;;;;19.17;8.80;;;1.50;89.80;;;;;;5080371;28;20028;-88
2024/02/27 08:33:10;;;;;;;13.13;7.90;;;1.70;90.00;;;;;;5091174;28;20028;-86
2024/02/27 08:35:36;;;;;;;18.30;8.13;;;2.00;89.80;;;;;;5091811;28;20016;-86
2024/02/27 08:38:02;;;;;;;17.10;8.13;;;2.10;89.10;;;;;;5092027;28;20048;-86
2024/02/27 08:40:28;;;;;;;15.13;8.40;;;2.10;87.70;;;;;;5095916;28;20031;-85
2024/02/27 08:42:54;;;;;;;14.35;7.80;;;1.90;87.90;;;;;;5095655;28;20054;-86
2024/02/27 08:45:20;;;;;;;17.23;8.57;;;1.80;88.90;;;;;;5094249;28;20017;-88
2024/02/27 08:47:46;;;;;;;15.75;8.35;;;1.90;89.60;;;;;;5090217;28;20446;-88
2024/02/27 08:50:13;;;;;;;15.10;8.80;;;1.90;89.10;;;;;;5088566;28;20060;-85
2024/02/27 08:52:39;;;;;;;19.37;8.47;;;1.90;87.80;;;;;;5095824;28;20039;-85
2024/02/27 08:55:06;;;;;;;11.80;7.38;;;1.90;88.70;;;;;;5096481;28;20032;-87
2024/02/27 08:57:32;;;;;;;12.57;6.65;;;1.90;88.50;;;;;;5094554;28;20500;-85
2024/02/27 08:59:58;;;;;;;9.45;5.90;;;2.00;88.00;;;;;;5098294;28;20112;-86
2024/02/27 09:02:24;;;;;;;18.85;8.70;;;1.80;88.00;;;;;;5105144;28;20027;-84
2024/02/27 09:04:51;;;;;;;17.38;8.82;;;1.70;88.50;;;;;;5094389;28;20370;-85
2024/02/27 09:07:17;;;;;;;16.30;8.10;;;1.70;88.80;;;;;;5094192;28;20024;-83
2024/02/27 09:09:44;;;;;;;16.20;8.50;;;1.60;89.00;;;;;;5083830;28;20109;-83
2024/02/27 09:12:13;;;;;;;12.93;8.48;;;1.60;89.10;;;;;;5098080;28;20119;-87
2024/02/27 09:14:39;;;;;;;13.75;7.53;;;1.50;89.70;;;;;;5088475;28;20028;-85
2024/02/27 09:17:05;;;;;;;18.58;10.43;;;1.50;90.00;;;;;;5086365;28;20101;-86
2024/02/27 09:19:32;;;;;;;30.40;8.73;;;1.50;90.10;;;;;;5092028;28;20503;-86
2024/02/27 09:22:00;;;;;;;21.77;9.07;;;1.40;90.10;;;;;;5097042;28;20091;-86
2024/02/27 09:24:27;;;;;;;21.27;10.82;;;1.40;90.30;;;;;;5096701;28;20024;-84
2024/02/27 09:26:52;;;;;;;19.85;12.23;;;1.60;90.50;;;;;;5102751;28;20024;-84
2024/02/27 09:29:18;;;;;;;24.10;13.23;;;1.70;90.30;;;;;;5110505;28;20028;-87
2024/02/27 09:31:49;;;;;;;27.50;10.95;;;1.80;90.10;;;;;;5100842;28;20046;-87
2024/02/27 09:34:15;;;;;;;23.13;12.90;;;1.80;90.40;;;;;;5099579;28;20473;-87
2024/02/27 09:36:41;;;;;;;19.63;11.40;;;2.00;90.20;;;;;;5091896;28;20115;-86
2024/02/27 09:39:07;;;;;;;19.35;10.18;;;2.10;90.00;;;;;;5093765;28;20032;-85
2024/02/27 09:41:32;;;;;;;21.90;10.45;;;2.10;89.90;;;;;;5095040;28;20032;-84
2024/02/27 09:43:58;;;;;;;22.02;11.23;;;2.10;89.20;;;;;;5090378;28;20115;-86
2024/02/27 09:46:24;;;;;;;15.18;10.73;;;2.10;90.00;;;;;;5088923;28;20077;-85
2024/02/27 09:48:53;;;;;;;20.50;11.43;;;2.10;89.50;;;;;;5086956;28;20024;-82
2024/02/27 09:51:18;;;;;;;21.63;9.95;;;2.10;89.90;;;;;;5086319;28;20075;-86
2024/02/27 09:53:44;;;;;;;23.00;13.45;;;2.10;90.00;;;;;;5094657;28;20422;-84
2024/02/27 09:56:14;;;;;;;17.63;9.68;;;2.00;89.80;;;;;;5091589;28;20032;-86
2024/02/27 09:58:38;;;;;;;18.55;10.90;;;1.90;90.10;;;;;;5086828;28;20063;-83
2024/02/27 10:01:01;;;;;;;20.45;9.95;;;1.80;90.10;;;;;;5087738;28;20024;-85
2024/02/27 10:03:27;;;;;;;19.55;12.93;;;1.90;90.30;;;;;;5093693;28;20020;-85
2024/02/27 10:05:53;;;;;;;23.55;13.10;;;1.90;90.40;;;;;;5089804;28;20032;-85
2024/02/27 10:37:05;;;;;;;19.55;10.38;;;1.70;90.80;;;;;;5079357;28;20081;-85
2024/02/27 10:39:32;;;;;;;19.65;7.63;;;1.70;90.70;;;;;;5084691;28;20038;-83
2024/02/27 10:41:59;;;;;;;19.77;9.88;;;1.70;90.70;;;;;;5085168;28;20036;-83
2024/02/27 10:44:32;;;;;;;16.98;7.68;;;1.70;90.70;;;;;;5089497;28;20481;-83
2024/02/27 10:47:02;;;;;;;16.70;7.82;;;1.80;90.70;;;;;;5091927;28;20388;-84
2024/02/27 10:49:28;;;;;;;16.27;9.18;;;1.80;90.80;;;;;;5095277;28;20103;-84
2024/02/27 10:51:54;;;;;;;20.67;11.10;;;1.80;90.90;;;;;;5095977;28;20036;-85
2024/02/27 10:54:23;;;;;;;20.97;10.67;;;1.90;90.80;;;;;;5092554;28;20032;-86
2024/02/27 10:56:50;;;;;;;15.60;8.73;;;2.00;90.80;;;;;;5093028;28;20027;-87
2024/02/27 10:59:16;;;;;;;25.98;13.25;;;2.20;90.70;;;;;;5094147;28;20027;-84
2024/02/27 11:01:45;;;;;;;21.45;8.88;;;2.40;90.70;;;;;;5090103;28;20504;-86
2024/02/27 11:04:21;;;;;;;16.95;10.02;;;2.50;89.50;;;;;;5094721;28;20217;-84
2024/02/27 11:06:50;;;;;;;16.43;9.53;;;2.50;90.00;;;;;;5091701;28;20407;-87
2024/02/27 11:09:20;;;;;;;19.75;9.60;;;2.70;89.90;;;;;;5094696;28;20086;-83
2024/02/27 11:11:49;;;;;;;21.77;9.38;;;2.70;89.20;;;;;;5095121;28;20028;-80
2024/02/27 11:14:18;;;;;;;19.90;9.20;;;2.70;89.00;;;;;;5081230;28;20100;-85
2024/02/27 11:16:50;;;;;;;13.75;8.35;;;2.80;89.20;;;;;;5095449;28;20016;-84
2024/02/27 11:19:24;;;;;;;12.85;8.25;;;2.80;88.50;;;;;;5095740;28;20020;-88
2024/02/27 11:21:52;;;;;;;18.77;8.20;;;2.80;88.20;;;;;;5081692;28;20017;-86
2024/02/27 11:24:21;;;;;;;14.90;9.38;;;2.80;88.80;;;;;;5087360;28;20423;-87
2024/02/27 11:26:48;;;;;;;14.32;8.48;;;2.80;87.60;;;;;;5091996;28;20031;-85
2024/02/27 11:29:14;;;;;;;15.68;9.38;;;2.80;87.40;;;;;;5093325;28;20059;-88
2024/02/27 11:31:42;;;;;;;23.77;9.40;;;2.80;87.60;;;;;;5092878;28;20104;-87
2024/02/27 11:34:08;;;;;;;20.38;10.70;;;2.90;87.70;;;;;;5094111;28;20085;-87
2024/02/27 11:36:33;;;;;;;12.52;8.98;;;3.00;88.20;;;;;;5092089;28;20052;-87
2024/02/27 11:39:00;;;;;;;19.58;11.52;;;3.30;87.60;;;;;;5085210;28;20210;-88
2024/02/27 11:41:27;;;;;;;18.13;10.30;;;3.40;87.40;;;;;;5087968;28;20031;-82
2024/02/27 11:43:57;;;;;;;20.33;11.32;;;3.60;86.70;;;;;;5091525;28;20020;-83
2024/02/27 11:46:35;;;;;;;15.48;11.27;;;3.80;86.80;;;;;;5094085;28;20064;-87
2024/02/27 11:49:03;;;;;;;24.63;12.43;;;4.20;86.20;;;;;;5080683;28;20107;-86
2024/02/27 11:51:36;;;;;;;19.65;8.80;;;4.70;85.80;;;;;;5094565;28;20043;-86
2024/02/27 11:54:06;;;;;;;20.52;11.18;;;5.10;83.80;;;;;;5082542;28;20020;-85
2024/02/27 11:56:34;;;;;;;20.40;12.88;;;5.00;82.80;;;;;;5093906;28;20028;-86
2024/02/27 11:59:00;;;;;;;20.80;11.13;;;5.10;82.70;;;;;;5095346;28;20440;-85
2024/02/27 12:01:26;;;;;;;23.35;12.73;;;5.10;82.00;;;;;;5095204;28;20054;-87
2024/02/27 12:03:52;;;;;;;20.92;11.30;;;4.90;82.10;;;;;;5092585;28;20028;-83
2024/02/27 12:06:18;;;;;;;23.25;12.55;;;4.80;82.40;;;;;;5090949;28;20035;-86
2024/02/27 12:08:48;;;;;;;20.98;12.63;;;4.70;82.50;;;;;;5092233;28;20082;-86
2024/02/27 12:11:19;;;;;;;21.98;11.70;;;4.80;82.30;;;;;;5092578;28;20059;-86
2024/02/27 12:13:48;;;;;;;21.15;11.77;;;4.80;82.30;;;;;;5094258;28;20024;-87
2024/02/27 12:16:25;;;;;;;28.48;12.18;;;4.90;82.00;;;;;;5095179;28;20063;-89
2024/02/27 12:18:53;;;;;;;22.90;10.40;;;4.90;81.90;;;;;;5098784;28;20030;-89
2024/02/27 12:21:33;;;;;;;20.85;11.48;;;5.00;82.20;;;;;;5107129;28;20094;-88
2024/02/27 12:24:18;;;;;;;17.45;10.18;;;5.10;81.90;;;;;;5089090;28;20485;-84
2024/02/27 12:26:47;;;;;;;22.83;10.77;;;5.20;81.30;;;;;;5078413;28;20096;-89
2024/02/27 12:29:17;;;;;;;28.95;11.43;;;5.30;81.20;;;;;;5092006;28;20760;-88
2024/02/27 12:31:43;;;;;;;19.90;10.60;;;5.40;80.50;;;;;;5078153;28;20488;-87
2024/02/27 12:34:08;;;;;;;19.50;11.90;;;5.30;80.00;;;;;;5093596;28;20028;-87
2024/02/27 12:36:35;;;;;;;20.02;10.40;;;5.20;79.70;;;;;;5095292;28;20084;-88
2024/02/27 12:39:01;;;;;;;22.90;13.13;;;5.20;80.50;;;;;;5083557;28;20051;-86
2024/02/27 12:41:31;;;;;;;27.23;12.00;;;5.30;80.90;;;;;;5091971;28;20024;-88
2024/02/27 12:44:00;;;;;;;26.10;12.25;;;5.30;79.80;;;;;;5089687;28;20085;-85
2024/02/27 12:46:26;;;;;;;18.13;11.05;;;5.40;80.10;;;;;;5082307;28;20381;-87
2024/02/27 12:48:52;;;;;;;15.77;7.68;;;5.40;79.10;;;;;;5087587;28;20024;-84
2024/02/27 12:51:19;;;;;;;19.88;10.77;;;5.30;77.80;;;;;;5086057;28;20078;-87
2024/02/27 12:53:45;;;;;;;31.10;14.02;;;5.20;78.50;;;;;;5075180;28;20013;-88
2024/02/27 12:56:12;;;;;;;27.77;11.55;;;5.10;78.90;;;;;;5084366;28;20536;-87
2024/02/27 12:58:39;;;;;;;21.20;9.82;;;5.20;79.20;;;;;;5094176;28;20040;-87
2024/02/27 13:01:08;;;;;;;16.40;7.55;;;5.30;78.20;;;;;;5093026;28;20024;-89
2024/02/27 13:03:36;;;;;;;17.25;8.88;;;5.20;78.10;;;;;;5092433;28;20039;-89
2024/02/27 13:06:04;;;;;;;20.08;10.82;;;5.10;78.10;;;;;;5093367;28;20024;-88
2024/02/27 13:08:30;;;;;;;25.10;11.95;;;4.90;78.70;;;;;;5094063;28;20074;-91
2024/02/27 13:10:57;;;;;;;15.90;8.88;;;5.00;79.30;;;;;;5079332;28;20028;-90
2024/02/27 13:13:33;;;;;;;23.38;12.82;;;5.10;79.20;;;;;;5092652;28;20024;-87